createdAt,value
2022-11-05T00:00:17.609Z,-1.97
2022-11-05T00:03:40.487Z,-1.58
2022-11-05T00:07:03.401Z,-1.68
2022-11-05T00:10:15.828Z,-1.27
2022-11-05T00:13:38.644Z,-1.00
2022-11-05T00:16:45.856Z,-0.86
2022-11-05T00:19:50.490Z,-0.78
2022-11-05T00:23:23.433Z,-0.49
2022-11-05T00:26:27.717Z,-0.64
2022-11-05T00:29:31.976Z,-0.29
2022-11-05T00:32:36.427Z,-0.26
2022-11-05T00:35:40.756Z,-0.33
2022-11-05T00:38:46.240Z,-0.49
2022-11-05T00:42:10.130Z,-0.46
2022-11-05T00:45:15.005Z,-0.34
2022-11-05T00:48:38.183Z,0.10
2022-11-05T00:51:42.415Z,0.37
2022-11-05T00:54:46.950Z,0.41
2022-11-05T00:57:52.288Z,0.32
2022-11-05T01:00:58.421Z,0.43
2022-11-05T01:04:02.889Z,0.37
2022-11-05T01:07:07.119Z,0.82
2022-11-05T01:10:11.645Z,1.14
2022-11-05T01:13:25.962Z,1.35
2022-11-05T01:16:30.889Z,1.43
2022-11-05T01:19:35.584Z,1.15
2022-11-05T01:22:40.039Z,1.12
2022-11-05T01:25:45.600Z,0.85
2022-11-05T01:28:57.858Z,0.79
2022-11-05T01:32:02.434Z,1.12
2022-11-05T01:35:09.719Z,1.13
2022-11-05T01:38:13.869Z,1.96
2022-11-05T01:41:18.345Z,2.54
2022-11-05T01:45:07.304Z,2.94
2022-11-05T01:48:22.753Z,2.63
2022-11-05T01:51:29.379Z,2.30
2022-11-05T01:54:36.364Z,2.59
2022-11-05T01:57:40.686Z,2.75
2022-11-05T02:00:45.290Z,2.51
2022-11-05T02:03:51.920Z,2.89
2022-11-05T02:06:56.387Z,2.98
2022-11-05T02:10:10.561Z,3.31
2022-11-05T02:13:15.595Z,3.37
2022-11-05T02:16:41.722Z,3.66
2022-11-05T02:20:05.284Z,3.28
2022-11-05T02:23:18.534Z,2.77
2022-11-05T02:26:37.604Z,2.46
2022-11-05T02:30:21.675Z,2.35
2022-11-05T02:34:03.338Z,2.51
2022-11-05T02:37:13.651Z,2.54
2022-11-05T02:40:27.045Z,2.40
2022-11-05T02:43:52.989Z,2.50
2022-11-05T02:47:11.854Z,2.59
2022-11-05T02:50:50.352Z,2.21
2022-11-05T02:54:10.179Z,1.90
2022-11-05T02:57:14.663Z,2.77
2022-11-05T03:00:47.356Z,2.45
2022-11-05T03:04:01.374Z,2.37
2022-11-05T03:07:18.006Z,2.36
2022-11-05T03:10:27.990Z,2.35
2022-11-05T03:13:53.373Z,2.66
2022-11-05T03:17:21.602Z,2.60
2022-11-05T03:20:47.979Z,2.84
2022-11-05T03:23:52.038Z,2.54
2022-11-05T03:27:05.784Z,2.50
2022-11-05T03:30:13.149Z,2.51
2022-11-05T03:33:22.577Z,2.72
2022-11-05T03:36:58.053Z,2.40
2022-11-05T03:40:05.068Z,2.34
2022-11-05T03:43:10.615Z,2.04
2022-11-05T03:46:41.117Z,2.07
2022-11-05T03:50:06.121Z,2.23
2022-11-05T03:53:22.117Z,2.04
2022-11-05T03:56:41.912Z,1.93
2022-11-05T03:59:49.720Z,2.07
2022-11-05T04:02:57.006Z,2.39
2022-11-05T04:06:21.658Z,2.38
2022-11-05T04:09:44.859Z,2.07
2022-11-05T04:13:07.550Z,2.03
2022-11-05T04:16:30.700Z,2.10
2022-11-05T04:19:54.748Z,1.82
2022-11-05T04:23:25.983Z,1.65
2022-11-05T04:26:30.915Z,1.65
2022-11-05T04:29:53.625Z,1.43
2022-11-05T04:33:04.420Z,1.55
2022-11-05T04:36:09.096Z,1.51
2022-11-05T04:39:13.434Z,1.48
2022-11-05T04:42:18.017Z,1.32
2022-11-05T04:45:23.241Z,1.55
2022-11-05T04:48:29.921Z,1.48
2022-11-05T04:51:34.345Z,1.21
2022-11-05T04:54:40.276Z,1.17
2022-11-05T04:57:44.431Z,0.92
2022-11-05T05:00:51.225Z,1.12
2022-11-05T05:03:56.949Z,0.99
2022-11-05T05:07:03.417Z,1.10
2022-11-05T05:10:09.626Z,1.24
2022-11-05T05:13:14.176Z,1.24
2022-11-05T05:16:27.542Z,1.40
2022-11-05T05:19:51.917Z,1.54
2022-11-05T05:22:56.732Z,1.56
2022-11-05T05:26:01.571Z,1.79
2022-11-05T05:29:07.148Z,1.61
2022-11-05T05:32:11.781Z,1.38
2022-11-05T05:35:16.543Z,1.25
2022-11-05T05:38:21.228Z,1.32
2022-11-05T05:41:25.952Z,1.19
2022-11-05T05:44:30.470Z,1.16
2022-11-05T05:47:34.672Z,1.03
2022-11-05T05:50:39.371Z,1.01
2022-11-05T05:53:47.442Z,1.17
2022-11-05T05:56:51.594Z,1.39
2022-11-05T05:59:56.041Z,1.43
2022-11-05T06:03:00.961Z,1.21
2022-11-05T06:06:19.794Z,1.03
2022-11-05T06:09:24.451Z,1.10
2022-11-05T06:12:31.287Z,0.90
2022-11-05T06:15:36.326Z,1.23
2022-11-05T06:18:41.209Z,1.21
2022-11-05T06:21:45.653Z,1.17
2022-11-05T06:24:50.026Z,1.12
2022-11-05T06:27:55.307Z,1.10
2022-11-05T06:30:59.766Z,1.25
2022-11-05T06:34:04.093Z,1.29
2022-11-05T06:37:08.655Z,0.93
2022-11-05T06:40:13.215Z,0.99
2022-11-05T06:43:18.395Z,1.09
2022-11-05T06:46:22.808Z,0.93
2022-11-05T06:49:27.619Z,0.64
2022-11-05T06:52:34.874Z,0.41
2022-11-05T06:55:43.142Z,0.78
2022-11-05T06:58:47.696Z,0.59
2022-11-05T07:01:53.378Z,0.42
2022-11-05T07:04:58.005Z,0.38
2022-11-05T07:08:02.550Z,0.11
2022-11-05T07:11:07.783Z,0.48
2022-11-05T07:14:12.593Z,0.19
2022-11-05T07:17:19.504Z,0.20
2022-11-05T07:20:23.897Z,0.07
2022-11-05T07:23:28.478Z,-0.06
2022-11-05T07:26:34.674Z,-0.27
2022-11-05T07:29:39.271Z,-0.30
2022-11-05T07:32:43.776Z,-0.25
2022-11-05T07:35:48.565Z,-0.10
2022-11-05T07:38:58.897Z,-0.32
2022-11-05T07:42:06.505Z,-0.54
2022-11-05T07:45:11.989Z,-0.55
2022-11-05T07:48:16.430Z,-0.60
2022-11-05T07:51:20.933Z,-0.73
2022-11-05T07:54:27.328Z,-0.50
2022-11-05T07:57:31.607Z,-0.66
2022-11-05T08:00:36.368Z,-0.67
2022-11-05T08:03:42.414Z,-0.71
2022-11-05T08:06:47.123Z,-0.68
2022-11-05T08:09:53.207Z,-0.60
2022-11-05T08:12:59.855Z,-0.65
2022-11-05T08:16:06.929Z,-0.79
2022-11-05T08:19:11.394Z,-0.90
2022-11-05T08:22:16.231Z,-1.25
2022-11-05T08:25:20.744Z,-1.03
2022-11-05T08:28:28.834Z,-1.07
2022-11-05T08:31:37.853Z,-1.17
2022-11-05T08:34:42.053Z,-1.22
2022-11-05T08:37:46.829Z,-1.20
2022-11-05T08:40:58.533Z,-1.32
2022-11-05T08:44:07.301Z,-1.48
2022-11-05T08:47:12.791Z,-1.34
2022-11-05T08:50:17.334Z,-1.59
2022-11-05T08:53:22.388Z,-1.67
2022-11-05T08:56:27.054Z,-1.71
2022-11-05T08:59:32.253Z,-1.71
2022-11-05T09:02:36.788Z,-1.95
2022-11-05T09:05:43.777Z,-1.94
2022-11-05T09:08:48.286Z,-1.94
2022-11-05T09:15:17.429Z,-1.94
2022-11-05T09:18:22.128Z,-2.13
2022-11-05T09:21:26.618Z,-2.27
2022-11-05T09:24:30.834Z,-2.24
2022-11-05T09:27:36.591Z,-2.35
2022-11-05T09:30:46.519Z,-2.28
2022-11-05T09:33:51.015Z,-2.33
2022-11-05T09:36:55.878Z,-2.35
2022-11-05T09:40:00.265Z,-2.38
2022-11-05T09:43:05.815Z,-2.53
2022-11-05T09:46:21.377Z,-2.47
2022-11-05T09:49:36.289Z,-2.52
2022-11-05T09:52:41.226Z,-2.52
2022-11-05T09:56:13.389Z,-2.54
2022-11-05T09:59:27.015Z,-2.47
2022-11-05T10:02:39.066Z,-2.43
2022-11-05T10:05:44.333Z,-2.45
2022-11-05T10:09:01.874Z,-2.48
2022-11-05T10:12:18.614Z,-2.47
2022-11-05T10:15:29.521Z,-2.55
2022-11-05T10:18:40.529Z,-2.48
2022-11-05T10:22:06.162Z,-2.54
2022-11-05T10:25:22.202Z,-2.67
2022-11-05T10:28:29.960Z,-2.58
2022-11-05T10:31:38.451Z,-2.69
2022-11-05T10:34:44.280Z,-2.75
2022-11-05T10:37:48.941Z,-2.87
2022-11-05T10:41:05.639Z,-2.85
2022-11-05T10:44:42.718Z,-2.75
2022-11-05T10:48:07.196Z,-3.00
2022-11-05T10:51:11.865Z,-2.88
2022-11-05T10:54:24.507Z,-2.73
2022-11-05T10:57:38.141Z,-2.94
2022-11-05T11:01:02.364Z,-2.98
2022-11-05T11:04:24.316Z,-3.11
2022-11-05T11:07:29.005Z,-3.30
2022-11-05T11:10:41.778Z,-3.44
2022-11-05T11:14:14.438Z,-3.43
2022-11-05T11:17:27.440Z,-3.51
2022-11-05T11:20:33.589Z,-3.36
2022-11-05T11:23:41.050Z,-3.65
2022-11-05T11:26:45.252Z,-3.69
2022-11-05T11:30:01.870Z,-3.85
2022-11-05T11:33:10.543Z,-3.85
2022-11-05T11:36:17.933Z,-3.94
2022-11-05T11:39:29.705Z,-3.96
2022-11-05T11:42:42.136Z,-3.83
2022-11-05T11:46:02.144Z,-3.79
2022-11-05T11:49:32.618Z,-3.69
2022-11-05T11:52:38.818Z,-3.67
2022-11-05T11:55:59.880Z,-3.56
2022-11-05T11:59:18.386Z,-3.73
2022-11-05T12:03:20.181Z,-3.38
2022-11-05T12:06:52.236Z,-3.30
2022-11-05T12:10:02.194Z,-3.29
2022-11-05T12:13:22.213Z,-3.40
2022-11-05T12:16:32.290Z,-3.46
2022-11-05T12:19:49.123Z,-3.43
2022-11-05T12:23:38.190Z,-3.58
2022-11-05T12:26:57.486Z,-3.67
2022-11-05T12:30:24.125Z,-3.61
2022-11-05T12:33:53.502Z,-3.57
2022-11-05T12:37:15.888Z,-3.33
2022-11-05T12:40:29.410Z,-3.47
2022-11-05T12:43:39.294Z,-3.35
2022-11-05T12:47:11.228Z,-3.15
2022-11-05T12:50:18.453Z,-3.22
2022-11-05T12:53:28.656Z,-3.24
2022-11-05T12:56:39.908Z,-3.22
2022-11-05T13:00:03.124Z,-3.19
2022-11-05T13:03:28.555Z,-3.21
2022-11-05T13:06:42.018Z,-3.13
2022-11-05T13:09:49.417Z,-3.14
2022-11-05T13:13:14.877Z,-3.39
2022-11-05T13:16:39.678Z,-3.23
2022-11-05T13:20:02.326Z,-3.42
2022-11-05T13:23:27.175Z,-3.45
2022-11-05T13:26:40.133Z,-3.51
2022-11-05T13:29:55.916Z,-3.53
2022-11-05T13:33:15.151Z,-3.55
2022-11-05T13:36:56.914Z,-3.73
2022-11-05T13:40:07.612Z,-4.09
2022-11-05T13:43:42.043Z,-4.27
2022-11-05T13:47:14.889Z,-4.17
2022-11-05T13:50:31.302Z,-4.16
2022-11-05T13:54:07.429Z,-4.31
2022-11-05T13:57:24.212Z,-4.60
2022-11-05T14:00:34.084Z,-4.61
2022-11-05T14:03:45.819Z,-4.75
2022-11-05T14:06:50.219Z,-4.55
2022-11-05T14:10:06.923Z,-4.70
2022-11-05T14:13:19.869Z,-4.37
2022-11-05T14:16:27.662Z,-4.81
2022-11-05T14:19:50.047Z,-4.90
2022-11-05T14:22:54.962Z,-4.78
2022-11-05T14:26:14.584Z,-4.83
2022-11-05T14:29:24.400Z,-5.01
2022-11-05T14:32:44.673Z,-5.04
2022-11-05T14:35:49.288Z,-5.19
2022-11-05T14:39:01.413Z,-5.33
2022-11-05T14:42:31.712Z,-5.38
2022-11-05T14:45:43.319Z,-5.41
2022-11-05T14:49:09.780Z,-5.31
2022-11-05T14:52:16.477Z,-5.43
2022-11-05T14:55:39.897Z,-5.40
2022-11-05T14:58:46.152Z,-5.37
2022-11-05T15:01:50.924Z,-5.32
2022-11-05T15:05:35.854Z,-5.61
2022-11-05T15:09:17.105Z,-5.70
2022-11-05T15:12:42.757Z,-5.77
2022-11-05T15:15:51.584Z,-5.65
2022-11-05T15:18:57.622Z,-5.60
2022-11-05T15:22:08.199Z,-6.00
2022-11-05T15:25:52.973Z,-5.72
2022-11-05T15:28:58.809Z,-6.08
2022-11-05T15:32:03.907Z,-6.28
2022-11-05T15:35:28.003Z,-6.14
2022-11-05T15:38:35.135Z,-5.96
2022-11-05T15:41:39.947Z,-6.28
2022-11-05T15:45:20.401Z,-6.33
2022-11-05T15:48:24.711Z,-6.42
2022-11-05T15:51:30.610Z,-6.34
2022-11-05T15:54:35.001Z,-6.36
2022-11-05T15:57:40.701Z,-6.45
2022-11-05T16:00:48.103Z,-6.59
2022-11-05T16:03:55.193Z,-6.56
2022-11-05T16:07:07.894Z,-6.55
2022-11-05T16:10:25.572Z,-6.51
2022-11-05T16:13:33.149Z,-6.47
2022-11-05T16:16:38.989Z,-6.48
2022-11-05T16:19:43.917Z,-6.37
2022-11-05T16:22:50.389Z,-6.76
2022-11-05T16:25:54.820Z,-6.78
2022-11-05T16:29:01.488Z,-6.72
2022-11-05T16:32:18.038Z,-6.77
2022-11-05T16:35:25.337Z,-6.66
2022-11-05T16:38:30.119Z,-6.98
2022-11-05T16:41:43.758Z,-7.09
2022-11-05T16:44:48.001Z,-6.99
2022-11-05T16:47:53.541Z,-6.83
2022-11-05T16:50:58.500Z,-6.91
2022-11-05T16:54:02.759Z,-6.79
2022-11-05T16:57:09.267Z,-6.75
2022-11-05T17:00:20.607Z,-6.94
2022-11-05T17:03:25.046Z,-7.11
2022-11-05T17:06:29.623Z,-6.90
2022-11-05T17:09:35.042Z,-7.32
2022-11-05T17:12:39.870Z,-7.14
2022-11-05T17:15:46.452Z,-6.87
2022-11-05T17:18:50.770Z,-6.95
2022-11-05T17:21:54.944Z,-7.44
2022-11-05T17:24:59.290Z,-7.41
2022-11-05T17:28:04.004Z,-7.54
2022-11-05T17:31:10.690Z,-7.59
2022-11-05T17:34:14.990Z,-7.53
2022-11-05T17:37:19.315Z,-7.72
2022-11-05T17:40:24.908Z,-7.64
2022-11-05T17:43:29.178Z,-7.64
2022-11-05T17:46:33.663Z,-7.63
2022-11-05T17:49:38.288Z,-7.62
2022-11-05T17:52:43.025Z,-7.34
2022-11-05T17:55:48.141Z,-7.63
2022-11-05T17:58:52.518Z,-7.85
2022-11-05T18:01:57.072Z,-7.79
2022-11-05T18:05:01.568Z,-7.90
2022-11-05T18:08:08.298Z,-7.99
2022-11-05T18:11:12.833Z,-8.34
2022-11-05T18:14:22.817Z,-7.90
2022-11-05T18:17:28.566Z,-8.23
2022-11-05T18:20:32.992Z,-8.19
2022-11-05T18:23:37.328Z,-7.74
2022-11-05T18:26:41.438Z,-7.88
2022-11-05T18:29:46.961Z,-8.53
2022-11-05T18:32:51.967Z,-8.03
2022-11-05T18:35:56.737Z,-7.96
2022-11-05T18:39:02.711Z,-8.21
2022-11-05T18:42:07.048Z,-8.38
2022-11-05T18:45:13.124Z,-8.13
2022-11-05T18:48:17.539Z,-8.17
2022-11-05T18:51:21.884Z,-8.25
2022-11-05T18:54:26.143Z,-8.33
2022-11-05T18:57:30.858Z,-8.22
2022-11-05T19:00:35.301Z,-8.17
2022-11-05T19:03:40.354Z,-7.87
2022-11-05T19:06:44.710Z,-7.91
2022-11-05T19:09:48.899Z,-8.38
2022-11-05T19:12:54.104Z,-7.99
2022-11-05T19:15:58.489Z,-7.85
2022-11-05T19:19:05.523Z,-8.36
2022-11-05T19:22:11.325Z,-8.51
2022-11-05T19:25:15.679Z,-8.31
2022-11-05T19:28:21.503Z,-8.51
2022-11-05T19:31:25.915Z,-8.26
2022-11-05T19:34:30.221Z,-8.15
2022-11-05T19:37:34.670Z,-8.36
2022-11-05T19:40:39.449Z,-8.29
2022-11-05T19:43:44.115Z,-8.19
2022-11-05T19:46:48.615Z,-8.49
2022-11-05T19:49:52.748Z,-8.44
2022-11-05T19:52:57.088Z,-8.14
2022-11-05T19:56:06.487Z,-8.06
2022-11-05T19:59:13.120Z,-8.34
2022-11-05T20:02:18.226Z,-8.64
2022-11-05T20:05:22.815Z,-8.61
2022-11-05T20:08:28.192Z,-8.81
2022-11-05T20:11:33.005Z,-9.06
2022-11-05T20:14:37.624Z,-8.70
2022-11-05T20:17:42.530Z,-8.68
2022-11-05T20:20:48.344Z,-8.50
2022-11-05T20:23:52.855Z,-8.59
2022-11-05T20:26:58.127Z,-8.66
2022-11-05T20:30:02.436Z,-8.63
2022-11-05T20:33:07.572Z,-8.33
2022-11-05T20:36:17.934Z,-8.35
2022-11-05T20:39:25.095Z,-8.60
2022-11-05T20:42:29.475Z,-8.69
2022-11-05T20:45:33.739Z,-8.92
2022-11-05T20:48:38.246Z,-9.18
2022-11-05T20:51:42.909Z,-8.85
2022-11-05T20:54:47.370Z,-8.91
2022-11-05T20:57:52.135Z,-8.93
2022-11-05T21:00:57.964Z,-8.92
2022-11-05T21:04:03.645Z,-8.90
2022-11-05T21:07:08.034Z,-8.73
2022-11-05T21:10:12.750Z,-8.96
2022-11-05T21:13:17.178Z,-8.59
2022-11-05T21:16:21.710Z,-8.63
2022-11-05T21:19:26.238Z,-9.07
2022-11-05T21:22:30.633Z,-9.07
2022-11-05T21:25:35.180Z,-8.82
2022-11-05T21:28:41.043Z,-8.90
2022-11-05T21:31:46.906Z,-8.90
2022-11-05T21:34:51.164Z,-8.96
2022-11-05T21:37:55.567Z,-9.12
2022-11-05T21:41:03.721Z,-9.16
2022-11-05T21:44:07.970Z,-9.19
2022-11-05T21:47:12.430Z,-9.07
2022-11-05T21:50:21.615Z,-8.97
2022-11-05T21:53:45.198Z,-9.14
2022-11-05T21:57:10.775Z,-8.95
2022-11-05T22:00:15.608Z,-9.03
2022-11-05T22:03:21.135Z,-8.85
2022-11-05T22:06:25.297Z,-8.96
2022-11-05T22:09:30.354Z,-8.91
2022-11-05T22:12:34.685Z,-8.75
2022-11-05T22:15:38.918Z,-8.70
2022-11-05T22:18:43.225Z,-8.53
2022-11-05T22:21:47.912Z,-8.56
2022-11-05T22:24:52.766Z,-8.45
2022-11-05T22:27:57.260Z,-8.47
2022-11-05T22:31:01.514Z,-8.46
2022-11-05T22:34:07.773Z,-8.57
2022-11-05T22:37:14.456Z,-8.32
2022-11-05T22:40:22.232Z,-8.24
2022-11-05T22:43:28.353Z,-7.67
2022-11-05T22:46:33.293Z,-6.86
2022-11-05T22:49:37.884Z,-6.30
2022-11-05T22:52:42.101Z,-6.06
2022-11-05T22:55:46.651Z,-5.81
2022-11-05T22:58:51.704Z,-5.82
2022-11-05T23:01:56.370Z,-6.12
2022-11-05T23:05:00.767Z,-5.60
2022-11-05T23:08:25.325Z,-4.87
2022-11-05T23:11:41.678Z,-4.36
2022-11-05T23:14:46.103Z,-4.56
2022-11-05T23:18:08.783Z,-4.30
2022-11-05T23:21:31.174Z,-4.39
2022-11-05T23:24:35.848Z,-4.21
2022-11-05T23:27:42.037Z,-3.98
2022-11-05T23:31:05.253Z,-3.99
2022-11-05T23:34:09.385Z,-3.18
2022-11-05T23:37:32.389Z,-1.96
2022-11-05T23:40:56.696Z,-2.16
2022-11-05T23:44:39.669Z,-2.44
2022-11-05T23:48:02.374Z,-2.18
2022-11-05T23:51:12.282Z,-1.75
2022-11-05T23:54:16.659Z,-1.35
2022-11-05T23:57:20.855Z,-0.81
